Time;durP1;ratioP1;P1;durP2;ratioP2;P2;SDS_P1;SDS_P2;PMS_P1;PMS_P2;Temp;Humidity;BMP_temperature;BMP_pressure;BME280_temperature;BME280_humidity;BME280_pressure;Samples;Min_cycle;Max_cycle;Signal;HPM_P1;HPM_P2
2023/08/23 00:00:53;;;;;;;2.42;2.30;;;;;;;31.26;45.90;98672.81;2083162;28;20052;-52
2023/08/23 00:01:53;;;;;;;2.88;2.67;;;;;;;31.23;46.09;98670.66;2081841;28;20413;-51
2023/08/23 00:02:55;;;;;;;2.65;2.45;;;;;;;31.25;46.13;98678.56;2083185;28;20063;-49
2023/08/23 00:03:56;;;;;;;2.53;2.33;;;;;;;31.23;46.49;98681.59;2080037;28;20679;-52
2023/08/23 00:04:58;;;;;;;2.92;2.72;;;;;;;31.26;46.20;98681.03;2084109;28;20136;-52
2023/08/23 00:05:59;;;;;;;2.50;2.35;;;;;;;31.22;46.47;98679.94;2082774;28;20072;-54
2023/08/23 00:07:03;;;;;;;2.38;2.20;;;;;;;31.27;46.05;98679.91;2084261;28;20068;-51
2023/08/23 00:08:04;;;;;;;2.13;1.95;;;;;;;31.23;46.66;98678.88;2081525;28;20045;-53
2023/08/23 00:09:06;;;;;;;2.38;2.17;;;;;;;31.24;46.34;98672.28;2084271;28;20302;-54
2023/08/23 00:10:08;;;;;;;2.40;2.20;;;;;;;31.25;46.57;98681.31;2083490;28;20076;-53
2023/08/23 00:11:10;;;;;;;2.45;2.25;;;;;;;31.26;46.23;98675.56;2083585;28;20090;-51
2023/08/23 00:12:11;;;;;;;2.55;2.35;;;;;;;31.26;46.00;98681.03;2084333;28;20087;-49
2023/08/23 00:13:13;;;;;;;2.15;2.05;;;;;;;31.26;46.20;98675.56;2083907;28;20045;-51
2023/08/23 00:14:13;;;;;;;2.95;2.65;;;;;;;31.23;46.68;98670.66;2081774;28;20423;-55
2023/08/23 00:15:14;;;;;;;2.90;2.70;;;;;;;31.26;46.51;98672.81;2082606;28;20045;-49
2023/08/23 00:16:18;;;;;;;2.63;2.50;;;;;;;31.26;46.02;98664.59;2083208;28;20052;-50
2023/08/23 00:17:18;;;;;;;4.05;2.45;;;;;;;31.22;46.56;98665.44;2082243;28;20049;-53
2023/08/23 00:18:20;;;;;;;2.17;2.08;;;;;;;31.24;46.15;98668.72;2082425;28;20050;-52
2023/08/23 00:19:21;;;;;;;2.45;2.25;;;;;;;31.25;46.10;98667.59;2080978;28;20415;-54
2023/08/23 00:20:22;;;;;;;2.60;2.40;;;;;;;31.24;46.57;98664.06;2082777;28;20073;-52
2023/08/23 00:21:24;;;;;;;2.75;2.55;;;;;;;31.24;46.60;98661.31;2081499;28;20056;-50
2023/08/23 00:22:25;;;;;;;3.03;2.83;;;;;;;31.24;46.17;98660.50;2081946;28;20416;-53
2023/08/23 00:23:26;;;;;;;2.40;2.20;;;;;;;31.23;46.07;98667.91;2082693;28;20132;-52
2023/08/23 00:24:27;;;;;;;2.53;2.33;;;;;;;31.24;46.39;98665.97;2085000;28;20049;-53
2023/08/23 00:25:29;;;;;;;2.47;2.28;;;;;;;31.22;46.22;98659.97;2082709;28;20172;-53
2023/08/23 00:26:30;;;;;;;2.38;2.17;;;;;;;31.24;46.47;98661.31;2083294;28;20140;-52
2023/08/23 00:27:32;;;;;;;1.98;1.88;;;;;;;31.24;46.53;98666.78;2082538;28;20055;-52
2023/08/23 00:28:33;;;;;;;2.80;2.60;;;;;;;31.24;46.49;98664.06;2082728;28;20071;-51
2023/08/23 00:29:34;;;;;;;2.00;1.90;;;;;;;31.25;46.49;98662.13;2083121;28;20057;-50
2023/08/23 00:30:35;;;;;;;2.78;2.58;;;;;;;31.24;46.29;98661.31;2083291;28;20124;-49
2023/08/23 00:31:38;;;;;;;2.50;2.30;;;;;;;31.21;46.22;98661.88;2080892;28;20148;-50
2023/08/23 00:32:39;;;;;;;2.28;2.08;;;;;;;31.23;46.43;98659.69;2073948;28;20095;-57
2023/08/23 00:33:41;;;;;;;2.42;2.22;;;;;;;31.23;46.62;98665.16;2073085;28;20057;-52
2023/08/23 00:34:42;;;;;;;2.40;2.17;;;;;;;31.25;46.65;98657.47;2074998;28;20488;-50
2023/08/23 00:35:44;;;;;;;2.33;2.22;;;;;;;31.25;46.48;98659.38;2074635;28;20052;-51
2023/08/23 00:36:46;;;;;;;2.28;2.08;;;;;;;31.21;46.69;98658.34;2075768;28;20393;-51
2023/08/23 00:37:48;;;;;;;2.55;2.35;;;;;;;31.20;46.45;98649.28;2072819;28;20068;-54
2023/08/23 00:38:49;;;;;;;2.63;2.42;;;;;;;31.24;46.28;98666.78;2075904;28;20056;-53
2023/08/23 00:39:50;;;;;;;2.47;2.30;;;;;;;31.24;46.62;98657.75;2072094;28;20132;-51
2023/08/23 00:40:51;;;;;;;2.55;2.35;;;;;;;31.24;46.41;98655.03;2076245;28;20077;-53
2023/08/23 00:41:53;;;;;;;2.50;2.30;;;;;;;31.22;46.40;98663.50;2076226;28;20052;-52
2023/08/23 00:42:54;;;;;;;2.38;2.15;;;;;;;31.25;46.44;98662.94;2076486;28;20085;-50
2023/08/23 00:43:55;;;;;;;2.90;2.70;;;;;;;31.23;46.26;98662.44;2074265;28;20293;-53
2023/08/23 00:44:56;;;;;;;2.70;2.20;;;;;;;31.21;46.76;98655.59;2078405;28;20069;-52
2023/08/23 00:45:58;;;;;;;3.10;2.75;;;;;;;31.19;46.42;98655.88;2076073;28;20046;-54
2023/08/23 00:47:01;;;;;;;2.45;2.25;;;;;;;31.24;46.69;98660.50;2078552;28;23194;-53
2023/08/23 00:48:04;;;;;;;2.67;2.47;;;;;;;31.22;46.63;98651.75;2074874;28;20041;-51
2023/08/23 00:49:05;;;;;;;2.40;2.20;;;;;;;31.21;46.20;98656.41;2077627;28;20062;-53
2023/08/23 00:50:08;;;;;;;2.67;2.47;;;;;;;31.22;46.61;98655.28;2075451;28;20081;-50
2023/08/23 00:51:10;;;;;;;3.17;2.90;;;;;;;31.20;46.68;98652.00;2077297;28;20057;-54
2023/08/23 00:52:11;;;;;;;2.42;2.22;;;;;;;31.21;46.28;98656.41;2075401;28;20131;-52
2023/08/23 00:53:14;;;;;;;2.42;2.22;;;;;;;31.20;46.66;98653.94;2076848;28;20050;-54
2023/08/23 00:54:15;;;;;;;2.83;2.63;;;;;;;31.20;46.34;98652.00;2077021;28;20049;-54
2023/08/23 00:55:17;;;;;;;2.38;2.20;;;;;;;31.20;46.17;98657.50;2076474;28;20544;-54
2023/08/23 00:56:17;;;;;;;2.47;2.28;;;;;;;31.18;46.64;98659.72;2072909;28;20049;-55
2023/08/23 00:57:20;;;;;;;2.20;2.08;;;;;;;31.23;46.54;98653.38;2078967;28;20049;-56
2023/08/23 00:58:22;;;;;;;2.65;2.42;;;;;;;31.20;46.55;98652.00;2075456;28;20717;-52
2023/08/23 00:59:24;;;;;;;2.22;2.03;;;;;;;31.20;46.06;98653.94;2076204;28;20041;-51
2023/08/23 01:00:26;;;;;;;2.70;2.50;;;;;;;31.21;46.27;98659.16;2075844;28;20073;-49
2023/08/23 01:01:27;;;;;;;2.53;2.33;;;;;;;31.21;46.19;98661.06;2075633;28;20081;-51
2023/08/23 01:02:30;;;;;;;3.00;2.58;;;;;;;31.22;46.09;98659.97;2073580;28;20072;-49
2023/08/23 01:03:31;;;;;;;2.03;1.85;;;;;;;31.17;46.57;98656.19;2073271;28;20077;-49
2023/08/23 01:04:33;;;;;;;2.53;2.33;;;;;;;31.16;46.64;98653.72;2076894;28;20053;-52
2023/08/23 01:05:47;;;;;;;2.30;2.10;;;;;;;31.18;46.46;98657.00;2073247;28;20523;-53
2023/08/23 01:06:59;;;;;;;2.42;2.22;;;;;;;31.16;46.41;98650.97;2075199;28;20037;-56
2023/08/23 01:08:07;;;;;;;2.78;2.55;;;;;;;31.18;46.62;98657.00;2074476;28;20073;-49
2023/08/23 01:09:16;;;;;;;2.60;2.40;;;;;;;31.16;46.64;98656.44;2074360;28;20054;-53
2023/08/23 01:10:27;;;;;;;2.70;2.50;;;;;;;31.16;46.31;98650.97;2075423;28;20049;-53
2023/08/23 01:11:37;;;;;;;1.95;1.85;;;;;;;31.14;46.40;98647.69;2075232;28;20143;-49
2023/08/23 01:12:43;;;;;;;2.30;2.10;;;;;;;31.16;46.68;98643.56;2076217;28;20045;-51
2023/08/23 01:13:51;;;;;;;2.85;2.63;;;;;;;31.19;46.31;98650.38;2074020;28;20057;-51
2023/08/23 01:14:59;;;;;;;2.38;2.17;;;;;;;31.18;46.42;98657.00;2073473;28;20049;-50
2023/08/23 01:16:01;;;;;;;3.83;2.30;;;;;;;31.16;46.34;98640.81;2075437;28;20057;-52
2023/08/23 01:17:03;;;;;;;2.92;2.58;;;;;;;31.17;46.66;98644.38;2076697;28;20049;-49
2023/08/23 01:18:07;;;;;;;2.05;1.90;;;;;;;31.19;46.70;98644.09;2074937;28;20080;-49
2023/08/23 01:19:21;;;;;;;1.85;1.75;;;;;;;31.17;46.25;98650.69;2075521;28;20045;-53
2023/08/23 01:20:23;;;;;;;3.03;2.72;;;;;;;31.15;46.20;98649.34;2075846;28;20592;-50
2023/08/23 01:21:31;;;;;;;2.60;2.40;;;;;;;31.15;46.76;98650.16;2075355;28;20521;-50
2023/08/23 01:22:39;;;;;;;2.58;2.38;;;;;;;31.13;46.31;98646.88;2075477;28;20049;-49
2023/08/23 01:23:41;;;;;;;2.53;2.33;;;;;;;31.15;46.34;98650.16;2072552;28;20515;-54
2023/08/23 01:24:42;;;;;;;2.85;2.65;;;;;;;31.16;46.81;98645.50;2075134;28;20049;-55
2023/08/23 01:25:44;;;;;;;2.63;2.40;;;;;;;31.17;46.45;98645.22;2073085;28;20956;-54
2023/08/23 01:26:45;;;;;;;2.25;2.05;;;;;;;31.19;46.41;98655.06;2077088;28;20068;-52
2023/08/23 01:27:47;;;;;;;3.00;2.63;;;;;;;31.14;46.79;98655.91;2073733;28;20416;-49
2023/08/23 01:28:50;;;;;;;2.17;1.98;;;;;;;31.14;46.34;98647.69;2077198;28;20052;-55
2023/08/23 01:29:53;;;;;;;2.35;2.15;;;;;;;31.16;46.37;98643.56;2075279;28;20054;-54
2023/08/23 01:30:59;;;;;;;2.42;2.22;;;;;;;31.18;46.33;98651.50;2077188;28;20045;-52
2023/08/23 01:32:12;;;;;;;2.08;1.98;;;;;;;31.16;46.55;98649.03;2074180;28;20128;-51
2023/08/23 01:33:19;;;;;;;2.80;2.60;;;;;;;31.15;46.75;98650.16;2077388;28;20056;-50
2023/08/23 01:34:26;;;;;;;2.22;2.05;;;;;;;31.14;46.45;98650.44;2075067;28;20045;-52
2023/08/23 01:35:46;;;;;;;2.35;2.15;;;;;;;31.11;46.63;98651.00;2076331;28;20038;-51
2023/08/23 01:36:50;;;;;;;2.10;2.00;;;;;;;31.13;46.76;98657.84;2077145;28;20059;-49
2023/08/23 01:37:52;;;;;;;2.30;2.10;;;;;;;31.12;46.80;98658.09;2073681;28;20425;-51
2023/08/23 01:38:57;;;;;;;2.53;2.33;;;;;;;31.14;46.82;98655.91;2076756;28;20059;-49
2023/08/23 01:40:00;;;;;;;2.42;2.22;;;;;;;31.15;46.21;98654.81;2075787;28;20474;-51
2023/08/23 01:41:04;;;;;;;2.60;2.40;;;;;;;31.16;46.55;98648.22;2075946;28;20048;-51
2023/08/23 01:42:05;;;;;;;2.63;2.42;;;;;;;31.16;46.19;98660.00;2073300;28;20483;-50
2023/08/23 01:43:07;;;;;;;2.38;2.17;;;;;;;31.17;46.52;98660.81;2077205;28;20058;-50
2023/08/23 01:44:08;;;;;;;2.65;2.45;;;;;;;31.14;46.28;98650.44;2074967;28;20222;-53
2023/08/23 01:45:10;;;;;;;2.67;2.47;;;;;;;31.14;46.83;98658.66;2078084;28;20129;-51
2023/08/23 01:46:11;;;;;;;2.72;2.53;;;;;;;31.13;46.73;98657.03;2074569;28;20061;-49
2023/08/23 01:47:14;;;;;;;2.72;2.53;;;;;;;31.12;46.74;98653.47;2076573;28;20140;-52
2023/08/23 01:48:15;;;;;;;2.70;2.50;;;;;;;31.12;46.47;98661.69;2073305;28;20060;-49
2023/08/23 01:49:17;;;;;;;1.98;1.77;;;;;;;31.09;46.78;98648.56;2076443;28;20069;-49
2023/08/23 01:50:18;;;;;;;2.45;2.25;;;;;;;31.13;46.52;98655.09;2074958;28;20057;-53
2023/08/23 01:51:19;;;;;;;2.55;2.35;;;;;;;31.15;46.61;98661.13;2075679;28;20132;-53
2023/08/23 01:52:20;;;;;;;3.67;2.15;;;;;;;31.17;46.77;98655.34;2073256;28;20135;-50
2023/08/23 01:53:22;;;;;;;2.13;1.92;;;;;;;31.15;46.36;98652.91;2081984;28;20536;-49
2023/08/23 01:54:24;;;;;;;2.65;2.45;;;;;;;31.16;46.51;98656.44;2081893;28;20448;-51
2023/08/23 01:55:26;;;;;;;2.50;2.30;;;;;;;31.15;46.30;98654.81;2086889;28;20049;-56
2023/08/23 01:56:27;;;;;;;2.85;2.28;;;;;;;31.12;46.42;98652.63;2080689;28;20127;-53
2023/08/23 01:57:28;;;;;;;2.53;2.17;;;;;;;31.13;46.28;98648.81;2081204;28;20052;-53
2023/08/23 01:58:30;;;;;;;2.80;2.60;;;;;;;31.11;46.76;98646.34;2082978;28;20521;-53
2023/08/23 01:59:31;;;;;;;3.28;2.75;;;;;;;31.15;46.21;98649.34;2084632;28;20693;-52
2023/08/23 02:00:31;;;;;;;2.63;2.00;;;;;;;31.15;46.43;98652.91;2083126;28;20056;-52
2023/08/23 02:01:33;;;;;;;2.33;2.20;;;;;;;31.14;46.21;98655.91;2084315;28;20053;-50
2023/08/23 02:02:34;;;;;;;2.28;2.08;;;;;;;31.13;46.27;98657.84;2083451;28;20076;-54
2023/08/23 02:03:36;;;;;;;2.65;2.45;;;;;;;31.11;46.88;98649.06;2082626;28;20048;-52
2023/08/23 02:04:37;;;;;;;2.58;2.38;;;;;;;31.14;46.77;98655.91;2084065;28;20041;-55
2023/08/23 02:05:38;;;;;;;2.75;2.55;;;;;;;31.14;46.51;98650.44;2082213;28;20127;-56
2023/08/23 02:06:39;;;;;;;2.47;2.28;;;;;;;31.15;46.69;98652.91;2084388;28;20053;-52
2023/08/23 02:07:41;;;;;;;2.58;2.38;;;;;;;31.13;46.48;98657.03;2081342;28;20521;-54
2023/08/23 02:08:42;;;;;;;2.80;2.60;;;;;;;31.15;46.62;98652.09;2075942;28;20081;-53
2023/08/23 02:09:45;;;;;;;2.47;2.28;;;;;;;31.14;46.68;98656.72;2082172;28;20049;-50
2023/08/23 02:10:46;;;;;;;2.08;1.98;;;;;;;31.17;46.54;98655.34;2085392;28;20049;-58
2023/08/23 02:11:47;;;;;;;2.33;2.10;;;;;;;31.16;46.22;98653.72;2081390;28;20064;-53
2023/08/23 02:12:48;;;;;;;3.13;2.75;;;;;;;31.14;46.72;98648.50;2084568;28;20049;-51
2023/08/23 02:13:50;;;;;;;2.65;2.45;;;;;;;31.14;46.68;98651.25;2079999;28;20059;-53
2023/08/23 02:14:51;;;;;;;2.53;2.33;;;;;;;31.15;46.53;98649.34;2083193;28;20076;-49
2023/08/23 02:15:53;;;;;;;2.50;2.30;;;;;;;31.16;46.08;98653.72;2081639;28;20063;-55
2023/08/23 02:16:53;;;;;;;2.63;2.10;;;;;;;31.16;46.55;98649.03;2084646;28;20513;-49
2023/08/23 02:17:55;;;;;;;2.53;2.33;;;;;;;31.13;46.24;98646.88;2083158;28;20045;-50
2023/08/23 02:18:56;;;;;;;2.53;2.33;;;;;;;31.13;46.59;98654.28;2084465;28;20056;-55
2023/08/23 02:19:58;;;;;;;3.33;2.80;;;;;;;31.13;46.73;98646.06;2081317;28;20044;-51
2023/08/23 02:20:59;;;;;;;2.03;1.92;;;;;;;31.13;46.43;98654.28;2084322;28;20069;-51
2023/08/23 02:22:01;;;;;;;2.53;2.33;;;;;;;31.13;46.13;98655.09;2082675;28;20061;-52
2023/08/23 02:23:01;;;;;;;2.65;2.17;;;;;;;31.10;46.67;98652.94;2084569;28;20073;-51
2023/08/23 02:24:04;;;;;;;2.42;2.22;;;;;;;31.11;46.67;98651.00;2081236;28;20045;-53
2023/08/23 02:25:07;;;;;;;2.63;2.42;;;;;;;31.12;46.31;98660.84;2086777;28;20048;-53
2023/08/23 02:26:08;;;;;;;2.33;2.13;;;;;;;31.10;46.53;98650.19;2081549;28;20069;-52
2023/08/23 02:27:09;;;;;;;2.40;2.20;;;;;;;31.12;46.27;98652.63;2082737;28;20076;-52
2023/08/23 02:28:11;;;;;;;2.55;2.35;;;;;;;31.14;46.72;98655.91;2080219;28;20050;-50
2023/08/23 02:29:12;;;;;;;2.42;2.22;;;;;;;31.14;46.56;98658.66;2083543;28;20152;-51
2023/08/23 02:30:14;;;;;;;2.42;2.22;;;;;;;31.13;46.46;98648.81;2081195;28;20508;-50
2023/08/23 02:31:15;;;;;;;2.80;2.60;;;;;;;31.11;46.81;98657.28;2086279;28;20526;-50
2023/08/23 02:32:17;;;;;;;2.42;2.22;;;;;;;31.13;46.46;98660.56;2079990;28;20045;-56
2023/08/23 02:33:18;;;;;;;2.85;2.65;;;;;;;31.13;46.34;98657.84;2084582;28;20048;-54
2023/08/23 02:34:19;;;;;;;2.88;2.67;;;;;;;31.11;46.20;98657.28;2082225;28;20044;-55
2023/08/23 02:35:20;;;;;;;2.97;2.65;;;;;;;31.13;46.45;98649.63;2085741;28;20427;-50
2023/08/23 02:36:22;;;;;;;2.97;2.67;;;;;;;31.12;46.73;98655.38;2082589;28;20048;-50
2023/08/23 02:37:23;;;;;;;2.30;2.15;;;;;;;31.10;46.70;98655.66;2083318;28;20044;-53
2023/08/23 02:38:24;;;;;;;2.55;2.35;;;;;;;31.11;46.30;98659.22;2084001;28;20426;-51
2023/08/23 02:39:25;;;;;;;2.50;2.30;;;;;;;31.11;46.58;98651.00;2084664;28;20052;-51
2023/08/23 02:40:28;;;;;;;2.97;2.70;;;;;;;31.11;46.74;98657.28;2075768;28;20057;-49
2023/08/23 02:41:29;;;;;;;2.65;2.45;;;;;;;31.13;46.52;98654.28;2082647;28;20286;-51
2023/08/23 02:42:31;;;;;;;2.60;2.40;;;;;;;31.10;46.72;98655.66;2082021;28;20052;-50
2023/08/23 02:43:32;;;;;;;2.00;1.90;;;;;;;31.12;46.38;98653.47;2082599;28;21353;-49
2023/08/23 02:44:34;;;;;;;2.20;2.00;;;;;;;31.13;46.58;98657.03;2080478;28;20051;-52
2023/08/23 02:45:38;;;;;;;2.45;2.25;;;;;;;31.13;46.45;98655.09;2083266;28;20464;-52
2023/08/23 02:46:39;;;;;;;2.60;2.40;;;;;;;31.11;46.21;98651.00;2082387;28;20049;-50
2023/08/23 02:47:40;;;;;;;2.65;2.45;;;;;;;31.09;46.45;98655.94;2075066;28;20045;-50
2023/08/23 02:48:42;;;;;;;2.50;2.30;;;;;;;31.10;46.37;98655.66;2074552;28;20080;-49
2023/08/23 02:49:43;;;;;;;2.92;2.58;;;;;;;31.11;46.53;98645.53;2073308;28;20073;-54
2023/08/23 02:50:44;;;;;;;2.60;2.40;;;;;;;31.11;46.50;98653.75;2075399;28;20045;-52
2023/08/23 02:51:46;;;;;;;1.98;1.88;;;;;;;31.09;46.75;98648.56;2075400;28;20045;-50
2023/08/23 02:52:47;;;;;;;2.55;2.35;;;;;;;31.10;46.52;98657.59;2075724;28;20041;-52
2023/08/23 02:53:49;;;;;;;2.40;2.20;;;;;;;31.09;46.28;98653.19;2073819;28;20045;-54
2023/08/23 02:54:49;;;;;;;2.50;2.30;;;;;;;31.11;46.56;98653.75;2075726;28;20046;-57
2023/08/23 02:55:52;;;;;;;2.30;2.10;;;;;;;31.11;46.16;98651.00;2073067;28;20450;-51
2023/08/23 02:56:54;;;;;;;2.50;2.30;;;;;;;31.09;46.24;98648.56;2075058;28;20042;-50
2023/08/23 02:57:54;;;;;;;2.58;2.38;;;;;;;31.09;46.31;98653.19;2072969;28;20424;-49
2023/08/23 02:58:56;;;;;;;3.22;2.35;;;;;;;31.10;46.77;98652.13;2075882;28;20179;-52
2023/08/23 02:59:57;;;;;;;2.47;2.28;;;;;;;31.11;46.82;98656.47;2070130;28;22754;-50
2023/08/23 03:01:01;;;;;;;2.13;1.95;;;;;;;31.09;46.73;98654.03;2073855;28;20052;-55
2023/08/23 03:02:01;;;;;;;2.47;2.28;;;;;;;31.11;46.69;98660.03;2075914;28;20413;-49
2023/08/23 03:03:03;;;;;;;1.80;1.70;;;;;;;31.11;46.27;98657.28;2075839;28;20045;-55
2023/08/23 03:04:04;;;;;;;2.50;2.30;;;;;;;31.10;46.50;98654.84;2073845;28;20060;-52
2023/08/23 03:05:07;;;;;;;2.55;1.92;;;;;;;31.09;46.13;98658.69;2076039;28;20049;-51
2023/08/23 03:06:08;;;;;;;1.90;1.80;;;;;;;31.07;46.47;98658.16;2075504;28;20512;-53
2023/08/23 03:07:09;;;;;;;2.45;2.25;;;;;;;31.10;46.34;98657.59;2075000;28;20714;-53
2023/08/23 03:08:10;;;;;;;2.45;2.25;;;;;;;31.11;46.32;98656.47;2074162;28;21167;-55
2023/08/23 03:09:12;;;;;;;2.67;2.20;;;;;;;31.09;46.44;98659.53;2075032;28;20052;-49
2023/08/23 03:10:13;;;;;;;2.72;2.53;;;;;;;31.10;46.34;98654.84;2073802;28;20041;-55
2023/08/23 03:11:16;;;;;;;2.47;2.28;;;;;;;31.06;46.51;98660.06;2078410;28;20080;-51
2023/08/23 03:12:17;;;;;;;2.78;2.58;;;;;;;31.06;46.30;98660.06;2074485;28;20048;-50
2023/08/23 03:13:19;;;;;;;2.38;2.10;;;;;;;31.08;46.72;98657.06;2073800;28;20041;-52
2023/08/23 03:14:19;;;;;;;2.95;2.72;;;;;;;31.07;46.33;98655.44;2072404;28;20070;-51
2023/08/23 03:15:20;;;;;;;2.17;1.98;;;;;;;31.06;46.49;98662.81;2075169;28;20045;-50
2023/08/23 03:16:22;;;;;;;2.45;2.25;;;;;;;31.07;46.56;98656.25;2071986;28;20504;-50
2023/08/23 03:17:23;;;;;;;2.33;2.15;;;;;;;31.05;46.37;98652.16;2073398;28;20052;-52
2023/08/23 03:18:25;;;;;;;2.53;2.33;;;;;;;31.07;46.74;98658.16;2072451;28;20049;-51
2023/08/23 03:19:25;;;;;;;2.72;2.53;;;;;;;31.07;46.68;98652.69;2077399;28;20427;-50
2023/08/23 03:20:27;;;;;;;2.63;2.42;;;;;;;31.07;46.59;98660.91;2073659;28;20045;-50
2023/08/23 03:21:28;;;;;;;2.53;2.33;;;;;;;31.05;46.32;98655.69;2075003;28;20079;-50
2023/08/23 03:22:30;;;;;;;2.45;2.25;;;;;;;31.08;46.73;98662.53;2074375;28;20291;-49
2023/08/23 03:23:31;;;;;;;2.22;2.13;;;;;;;31.08;46.58;98657.06;2076435;28;20045;-50
2023/08/23 03:24:33;;;;;;;2.50;2.30;;;;;;;31.07;46.35;98656.25;2075093;28;20064;-53
2023/08/23 03:25:34;;;;;;;2.50;2.30;;;;;;;31.07;46.54;98660.91;2072383;28;20045;-53
2023/08/23 03:26:37;;;;;;;2.55;2.35;;;;;;;31.07;46.85;98658.16;2074336;28;20046;-53
2023/08/23 03:27:38;;;;;;;2.15;1.95;;;;;;;31.06;46.38;98653.78;2075351;28;20064;-53
2023/08/23 03:28:39;;;;;;;2.40;2.20;;;;;;;31.05;46.45;98658.44;2073594;28;20051;-50
2023/08/23 03:29:45;;;;;;;2.38;2.15;;;;;;;31.07;46.54;98655.44;2074477;28;20124;-56
2023/08/23 03:30:47;;;;;;;2.85;2.65;;;;;;;31.08;46.73;98654.31;2074170;28;20611;-50
2023/08/23 03:31:48;;;;;;;2.40;2.20;;;;;;;31.07;46.68;98656.25;2073174;28;20080;-55
2023/08/23 03:32:50;;;;;;;4.63;1.95;;;;;;;31.09;46.83;98650.47;2073286;28;20046;-54
2023/08/23 03:33:50;;;;;;;2.45;2.25;;;;;;;31.07;46.33;98655.44;2075574;28;20484;-49
2023/08/23 03:34:52;;;;;;;2.33;2.15;;;;;;;31.07;46.19;98647.22;2075036;28;20260;-50
2023/08/23 03:35:54;;;;;;;2.70;2.30;;;;;;;31.09;46.23;98655.94;2073884;28;20551;-51
2023/08/23 03:36:55;;;;;;;2.08;1.88;;;;;;;31.08;46.77;98646.09;2076634;28;20526;-52
2023/08/23 03:37:56;;;;;;;2.42;2.22;;;;;;;31.07;46.71;98656.25;2075835;28;20069;-51
2023/08/23 03:38:58;;;;;;;2.25;2.15;;;;;;;31.08;46.66;98648.84;2076310;28;20046;-49
2023/08/23 03:39:59;;;;;;;2.20;2.00;;;;;;;31.07;46.73;98644.47;2074279;28;20052;-51
2023/08/23 03:41:01;;;;;;;2.25;2.05;;;;;;;31.07;46.66;98649.94;2075258;28;20535;-53
2023/08/23 03:42:03;;;;;;;2.40;2.20;;;;;;;31.07;46.84;98644.47;2072568;28;20053;-50
2023/08/23 03:43:04;;;;;;;2.50;2.30;;;;;;;31.06;46.23;98648.28;2075222;28;20208;-54
2023/08/23 03:44:06;;;;;;;2.40;2.20;;;;;;;31.05;46.79;98647.50;2072199;28;20049;-50
2023/08/23 03:45:08;;;;;;;3.42;2.28;;;;;;;31.05;46.69;98646.69;2073148;28;20048;-50
2023/08/23 03:46:10;;;;;;;2.33;2.13;;;;;;;31.05;46.59;98644.75;2071851;28;20764;-52
2023/08/23 03:47:10;;;;;;;2.75;2.55;;;;;;;31.07;46.31;98650.75;2075005;28;20077;-52
2023/08/23 03:48:12;;;;;;;2.00;1.90;;;;;;;31.05;46.78;98654.91;2073430;28;20080;-49
2023/08/23 03:49:13;;;;;;;2.70;2.50;;;;;;;31.04;46.43;98653.28;2075570;28;20081;-50
2023/08/23 03:50:15;;;;;;;2.47;2.28;;;;;;;31.07;46.57;98655.44;2072605;28;20053;-49
2023/08/23 03:51:16;;;;;;;2.85;2.55;;;;;;;31.07;46.26;98658.16;2075005;28;20068;-54
2023/08/23 03:52:17;;;;;;;2.50;2.30;;;;;;;31.06;46.66;98651.84;2074406;28;20042;-52
2023/08/23 03:53:18;;;;;;;2.45;2.25;;;;;;;31.05;46.82;98663.09;2075993;28;20057;-52
2023/08/23 03:54:20;;;;;;;2.50;2.30;;;;;;;31.06;46.59;98659.25;2073844;28;20508;-56
2023/08/23 03:55:21;;;;;;;2.30;2.10;;;;;;;31.06;46.80;98654.59;2076020;28;20044;-53
2023/08/23 03:56:23;;;;;;;2.00;1.90;;;;;;;31.04;46.76;98651.34;2071723;28;20435;-52
2023/08/23 03:57:25;;;;;;;2.03;1.92;;;;;;;31.05;46.37;98646.69;2074910;28;20077;-52
2023/08/23 03:58:27;;;;;;;2.20;2.05;;;;;;;31.04;46.37;98648.59;2073546;28;20069;-52
2023/08/23 03:59:28;;;;;;;2.38;2.05;;;;;;;31.06;46.52;98653.78;2074892;28;20097;-50
2023/08/23 04:00:29;;;;;;;2.30;2.10;;;;;;;31.08;46.76;98657.06;2073180;28;20053;-53
2023/08/23 04:01:30;;;;;;;2.33;2.15;;;;;;;31.07;46.78;98649.94;2072051;28;20041;-52
2023/08/23 04:02:32;;;;;;;1.98;1.88;;;;;;;31.08;46.22;98651.56;2073554;28;20404;-54
2023/08/23 04:03:33;;;;;;;2.00;1.85;;;;;;;31.08;46.35;98651.56;2074765;28;20145;-55
2023/08/23 04:04:34;;;;;;;2.28;2.17;;;;;;;31.05;46.68;98657.63;2072274;28;20072;-53
2023/08/23 04:05:39;;;;;;;2.33;2.20;;;;;;;31.07;46.28;98658.16;2073474;28;20049;-55
2023/08/23 04:06:40;;;;;;;2.13;1.95;;;;;;;31.06;46.83;98649.13;2072727;28;20054;-55
2023/08/23 04:07:42;;;;;;;1.95;1.85;;;;;;;31.06;46.75;98657.31;2076217;28;20679;-52
2023/08/23 04:08:43;;;;;;;2.22;2.13;;;;;;;31.04;46.31;98645.88;2074270;28;20056;-52
2023/08/23 04:09:45;;;;;;;2.15;1.83;;;;;;;31.05;46.59;98652.16;2074280;28;20492;-55
2023/08/23 04:10:46;;;;;;;3.15;2.85;;;;;;;31.06;46.66;98653.78;2073376;28;20056;-54
2023/08/23 04:11:48;;;;;;;2.08;1.98;;;;;;;31.05;46.72;98658.44;2075121;28;20050;-53
2023/08/23 04:12:50;;;;;;;2.58;2.38;;;;;;;31.06;46.71;98659.25;2073774;28;20053;-54
2023/08/23 04:13:52;;;;;;;2.47;2.28;;;;;;;31.05;46.22;98650.22;2073584;28;20128;-54
2023/08/23 04:14:53;;;;;;;1.85;1.75;;;;;;;31.06;46.21;98653.78;2073112;28;20472;-55
2023/08/23 04:15:55;;;;;;;2.60;2.40;;;;;;;31.07;46.24;98655.44;2075338;28;20049;-52
2023/08/23 04:16:56;;;;;;;2.08;1.98;;;;;;;31.04;46.26;98654.06;2073894;28;20057;-56
2023/08/23 04:17:57;;;;;;;2.20;2.00;;;;;;;31.05;46.34;98652.16;2076698;28;20084;-52
2023/08/23 04:18:58;;;;;;;2.60;2.40;;;;;;;31.06;46.65;98645.56;2081334;28;20069;-52
2023/08/23 04:20:00;;;;;;;2.03;1.92;;;;;;;31.06;46.19;98651.84;2082770;28;20056;-54
2023/08/23 04:21:02;;;;;;;2.67;2.47;;;;;;;31.05;46.74;98649.41;2086407;28;20037;-50
2023/08/23 04:22:03;;;;;;;2.10;1.98;;;;;;;31.05;46.40;98650.22;2084087;28;20047;-52
2023/08/23 04:23:05;;;;;;;3.67;2.25;;;;;;;31.05;46.59;98663.09;2084756;28;20037;-54
2023/08/23 04:24:07;;;;;;;2.63;2.42;;;;;;;31.04;46.61;98654.06;2083939;28;20267;-56
2023/08/23 04:25:09;;;;;;;2.45;2.25;;;;;;;31.05;46.78;98650.22;2085648;28;20073;-52
2023/08/23 04:26:10;;;;;;;2.22;2.03;;;;;;;31.04;46.74;98651.34;2080144;28;20045;-53
2023/08/23 04:27:11;;;;;;;2.35;1.98;;;;;;;31.04;46.45;98645.88;2077217;28;20095;-51
2023/08/23 04:28:14;;;;;;;2.47;2.28;;;;;;;31.06;46.42;98651.84;2077237;28;20554;-52
2023/08/23 04:29:15;;;;;;;2.40;2.20;;;;;;;31.05;46.42;98654.91;2083703;28;20056;-49
2023/08/23 04:30:17;;;;;;;2.42;2.28;;;;;;;31.05;46.33;98649.41;2084312;28;20049;-53
2023/08/23 04:31:18;;;;;;;2.25;2.08;;;;;;;31.03;46.69;98649.69;2087066;28;20574;-54
2023/08/23 04:32:20;;;;;;;2.17;2.08;;;;;;;31.06;46.38;98648.28;2083788;28;20045;-53
2023/08/23 04:33:21;;;;;;;2.45;2.25;;;;;;;31.04;46.60;98645.88;2082986;28;20081;-52
2023/08/23 04:34:23;;;;;;;2.13;1.98;;;;;;;31.04;46.48;98645.88;2081770;28;20080;-53
2023/08/23 04:35:24;;;;;;;2.40;1.90;;;;;;;31.04;46.72;98656.00;2083624;28;20127;-51
2023/08/23 04:36:24;;;;;;;2.47;2.28;;;;;;;31.03;46.66;98657.09;2084003;28;20258;-55
2023/08/23 04:37:26;;;;;;;2.40;2.20;;;;;;;31.03;46.68;98651.59;2084375;28;20496;-53
2023/08/23 04:38:27;;;;;;;2.03;1.92;;;;;;;31.02;46.77;98650.00;2080121;28;20439;-52
2023/08/23 04:39:29;;;;;;;1.70;1.60;;;;;;;31.04;46.58;98656.00;2084512;28;20056;-51
2023/08/23 04:40:30;;;;;;;1.70;1.60;;;;;;;31.02;46.70;98652.72;2083071;28;20055;-52
2023/08/23 04:41:31;;;;;;;2.38;2.22;;;;;;;31.03;46.75;98655.16;2084373;28;20042;-52
2023/08/23 04:42:33;;;;;;;1.80;1.70;;;;;;;31.03;46.21;98652.44;2083168;28;20807;-49
2023/08/23 04:43:36;;;;;;;2.15;2.05;;;;;;;31.04;46.32;98656.00;2085151;28;20124;-54
2023/08/23 04:44:37;;;;;;;1.90;1.80;;;;;;;31.01;46.74;98654.66;2083195;28;20076;-50
2023/08/23 04:45:37;;;;;;;2.70;2.47;;;;;;;31.01;46.77;98656.56;2085056;28;20407;-55
2023/08/23 04:46:39;;;;;;;2.70;2.50;;;;;;;31.02;46.69;98655.47;2082653;28;20284;-53
2023/08/23 04:47:40;;;;;;;2.00;1.90;;;;;;;31.04;46.43;98656.00;2076254;28;20053;-54
2023/08/23 04:48:42;;;;;;;2.20;2.00;;;;;;;31.04;46.17;98662.31;2083115;28;20131;-53
2023/08/23 04:49:43;;;;;;;2.05;1.90;;;;;;;31.01;46.76;98662.88;2084361;28;20064;-53
2023/08/23 04:50:51;;;;;;;2.53;2.33;;;;;;;31.02;46.24;98660.94;2083482;28;20045;-54
2023/08/23 04:51:51;;;;;;;2.63;2.22;;;;;;;31.03;46.69;98657.09;2081502;28;20507;-51
2023/08/23 04:52:53;;;;;;;2.60;2.40;;;;;;;31.00;46.48;98655.75;2085145;28;20048;-50